Time;durP1;ratioP1;P1;durP2;ratioP2;P2;SDS_P1;SDS_P2;PMS_P1;PMS_P2;Temp;Humidity;BMP_temperature;BMP_pressure;BME280_temperature;BME280_humidity;BME280_pressure;Samples;Min_cycle;Max_cycle;Signal;HPM_P1;HPM_P2
2022/07/05 03:38:10;;;;;;;;;;;20.30;84.70;;;;;;4670501;26;19986;-96
2022/07/05 03:40:38;;;;;;;;;;;20.10;85.00;;;;;;4998396;28;19946;-95
2022/07/05 03:43:09;;;;;;;;;;;20.10;85.60;;;;;;5000454;28;19933;-95
2022/07/05 03:45:39;;;;;;;;;;;20.10;86.20;;;;;;4998049;28;20020;-96
2022/07/05 04:04:22;;;;;;;;;;;20.40;86.30;;;;;;5373245;23;19963;-96
2022/07/05 04:30:51;;;;;;;;;;;20.40;86.60;;;;;;5112274;27;20003;-96
2022/07/05 04:33:18;;;;;;;;;;;20.80;86.70;;;;;;5111650;28;20010;-96
2022/07/05 04:35:49;;;;;;;;;;;20.90;86.70;;;;;;5113549;28;19942;-96
2022/07/05 04:38:16;;;;;;;;;;;21.10;86.10;;;;;;5113498;28;19988;-96
2022/07/05 04:40:43;;;;;;;;;;;21.30;85.60;;;;;;5113771;28;19930;-96
2022/07/05 04:43:16;;;;;;;;;;;21.30;85.30;;;;;;5112951;28;19936;-96
2022/07/05 04:45:43;;;;;;;;;;;21.40;85.40;;;;;;5113400;28;19952;-96
2022/07/05 04:48:10;;;;;;;;;;;21.50;85.60;;;;;;5112796;28;19947;-96
2022/07/05 04:50:37;;;;;;;;;;;21.60;85.70;;;;;;5129938;28;19991;-96
2022/07/05 04:53:05;;;;;;;;;;;21.80;85.70;;;;;;5112812;28;19923;-96
2022/07/05 04:55:32;;;;;;;;;;;21.90;85.50;;;;;;5113155;28;19942;-96
2022/07/05 04:58:08;;;;;;;;;;;21.90;85.70;;;;;;5112713;28;20013;-96
2022/07/05 05:00:34;;;;;;;;;;;22.10;85.80;;;;;;5112110;28;19957;-96
2022/07/05 05:03:02;;;;;;;;;;;22.20;86.10;;;;;;5112533;28;19949;-96
2022/07/05 05:05:30;;;;;;;;;;;22.30;85.80;;;;;;5111307;28;19942;-96
2022/07/05 05:07:57;;;;;;;;;;;22.50;84.90;;;;;;5111057;28;19947;-96
2022/07/05 05:10:24;;;;;;;;;;;22.70;85.10;;;;;;5111568;28;19952;-96
2022/07/05 05:12:51;;;;;;;;;;;22.80;84.80;;;;;;5111249;28;19948;-96
2022/07/05 05:18:01;;;;;;;;;;;22.80;84.00;;;;;;5054403;27;3541167;-96
2022/07/05 05:20:31;;;;;;;;;;;23.10;83.30;;;;;;5178035;27;19947;-96
2022/07/05 05:23:02;;;;;;;;;;;23.20;83.90;;;;;;5193871;27;19946;-96
2022/07/05 05:25:31;;;;;;;;;;;23.30;83.50;;;;;;5175813;27;19976;-96
2022/07/05 05:28:25;;;;;;;;;;;23.30;80.40;;;;;;5177959;27;19959;-96
2022/07/05 05:38:57;;;;;;;;;;;24.00;76.30;;;;;;5160794;22;19985;-96
2022/07/05 05:41:32;;;;;;;;;;;24.10;73.80;;;;;;5088386;28;19983;-96
2022/07/05 05:46:42;;;;;;;;;;;24.60;70.70;;;;;;5180101;22;19983;-96
2022/07/05 05:49:10;;;;;;;;;;;24.80;67.20;;;;;;5052699;28;19947;-96
2022/07/05 05:51:35;;;;;;;;;;;24.90;64.90;;;;;;5038803;28;19949;-94
2022/07/05 05:54:01;;;;;;;;;;;25.20;63.00;;;;;;5032454;28;20290;-93
2022/07/05 05:56:26;;;;;;;;;;;25.30;61.10;;;;;;5049454;28;20065;-95
2022/07/05 05:58:52;;;;;;;;;;;25.50;60.00;;;;;;5049491;28;19995;-94
2022/07/05 06:01:18;;;;;;;;;;;25.60;59.60;;;;;;5048436;28;19951;-95
2022/07/05 06:03:43;;;;;;;;;;;25.70;60.70;;;;;;5033675;28;19959;-95
2022/07/05 06:06:09;;;;;;;;;;;25.70;60.50;;;;;;5049941;28;19961;-94
2022/07/05 06:08:34;;;;;;;;;;;25.80;61.30;;;;;;5049397;28;19936;-93
2022/07/05 06:11:03;;;;;;;;;;;25.80;59.10;;;;;;5049643;28;19948;-94
2022/07/05 06:13:29;;;;;;;;;;;25.80;59.20;;;;;;5048789;28;19949;-93
2022/07/05 06:15:55;;;;;;;;;;;25.80;59.90;;;;;;5047839;28;19960;-93
2022/07/05 06:18:22;;;;;;;;;;;25.80;61.40;;;;;;5053114;28;19997;-96
2022/07/05 06:20:47;;;;;;;;;;;25.80;60.90;;;;;;5050885;28;19941;-96
2022/07/05 06:23:13;;;;;;;;;;;25.80;60.40;;;;;;5036121;28;19943;-96
2022/07/05 06:25:39;;;;;;;;;;;25.80;60.90;;;;;;5052156;28;19954;-96
2022/07/05 06:28:06;;;;;;;;;;;25.80;61.70;;;;;;5044790;28;20389;-96
2022/07/05 06:30:33;;;;;;;;;;;25.90;63.30;;;;;;5043158;28;19939;-96
2022/07/05 06:32:59;;;;;;;;;;;25.80;63.30;;;;;;5042105;28;19959;-96
2022/07/05 06:35:24;;;;;;;;;;;25.80;63.70;;;;;;5020840;28;19950;-96
2022/07/05 06:37:54;;;;;;;;;;;25.80;64.90;;;;;;5039654;28;19970;-96
2022/07/05 06:40:27;;;;;;;;;;;25.70;64.70;;;;;;5029381;28;19941;-96
2022/07/05 06:42:55;;;;;;;;;;;25.60;65.10;;;;;;5049394;28;20011;-96
2022/07/05 06:45:21;;;;;;;;;;;25.40;65.60;;;;;;5029850;28;20466;-94
2022/07/05 06:47:56;;;;;;;;;;;25.30;66.30;;;;;;5020366;28;19941;-96
2022/07/05 06:50:21;;;;;;;;;;;25.10;67.60;;;;;;5016674;28;19989;-96
2022/07/05 06:52:47;;;;;;;;;;;25.00;68.60;;;;;;4998657;28;20047;-96
2022/07/05 06:55:12;;;;;;;;;;;24.90;68.70;;;;;;5023167;28;19998;-96
2022/07/05 06:57:38;;;;;;;;;;;25.00;68.80;;;;;;5016292;28;19984;-94
2022/07/05 07:00:04;;;;;;;;;;;25.00;69.30;;;;;;5016251;28;20320;-95
2022/07/05 07:02:30;;;;;;;;;;;25.00;69.80;;;;;;5016274;28;19936;-96
2022/07/05 07:04:55;;;;;;;;;;;25.20;70.20;;;;;;5016207;28;20032;-96
2022/07/05 07:10:05;;;;;;;;;;;25.20;68.50;;;;;;5016082;28;20004;-96
2022/07/05 07:12:30;;;;;;;;;;;25.30;68.30;;;;;;5016297;28;20387;-96
2022/07/05 07:14:56;;;;;;;;;;;25.30;68.00;;;;;;5016232;28;19944;-96
2022/07/05 07:17:22;;;;;;;;;;;25.40;67.30;;;;;;5015803;28;20354;-95
2022/07/05 07:19:48;;;;;;;;;;;25.50;66.60;;;;;;5016022;28;19947;-95
2022/07/05 07:22:14;;;;;;;;;;;25.60;66.70;;;;;;5016806;28;19951;-95
2022/07/05 07:24:39;;;;;;;;;;;25.70;66.40;;;;;;4998241;28;19954;-95
2022/07/05 07:27:06;;;;;;;;;;;25.80;64.80;;;;;;5015989;28;19963;-96
2022/07/05 07:29:32;;;;;;;;;;;25.80;63.60;;;;;;5015861;28;19944;-95
2022/07/05 07:31:58;;;;;;;;;;;25.90;62.60;;;;;;5016110;28;19936;-95
2022/07/05 07:34:24;;;;;;;;;;;26.00;61.80;;;;;;5015768;28;19941;-96
2022/07/05 07:36:50;;;;;;;;;;;26.20;60.70;;;;;;5015900;28;20004;-96
2022/07/05 07:39:15;;;;;;;;;;;26.30;61.20;;;;;;5014801;28;20026;-96
2022/07/05 07:41:41;;;;;;;;;;;26.40;59.20;;;;;;5015457;28;19936;-95
2022/07/05 07:44:06;;;;;;;;;;;26.50;59.00;;;;;;5016078;28;19950;-95
2022/07/05 07:46:32;;;;;;;;;;;26.70;58.00;;;;;;5014708;28;19978;-95
2022/07/05 07:48:58;;;;;;;;;;;26.80;56.90;;;;;;5015446;28;19938;-96
2022/07/05 07:51:24;;;;;;;;;;;26.90;56.50;;;;;;5015129;28;20048;-96
2022/07/05 07:53:49;;;;;;;;;;;27.00;56.10;;;;;;4997718;28;19990;-96
2022/07/05 07:56:15;;;;;;;;;;;27.10;56.70;;;;;;5015261;28;19968;-96
2022/07/05 07:58:41;;;;;;;;;;;27.20;56.10;;;;;;5015448;28;19936;-96
2022/07/05 08:01:10;;;;;;;;;;;27.30;56.10;;;;;;5015100;28;19954;-96
2022/07/05 08:03:45;;;;;;;;;;;27.40;54.90;;;;;;5015456;28;20004;-96
2022/07/05 08:06:11;;;;;;;;;;;27.50;54.00;;;;;;5014951;28;19942;-96
2022/07/05 08:08:37;;;;;;;;;;;27.60;53.50;;;;;;5015031;28;19939;-95
2022/07/05 08:11:03;;;;;;;;;;;27.70;53.10;;;;;;5014978;28;19991;-96
2022/07/05 08:13:29;;;;;;;;;;;27.70;52.40;;;;;;5015008;28;19946;-96
2022/07/05 08:15:55;;;;;;;;;;;27.90;53.10;;;;;;5014862;28;20343;-96
2022/07/05 08:23:49;;;;;;;;;;;28.10;51.80;;;;;;5014543;28;19991;-95
2022/07/05 08:26:14;;;;;;;;;;;28.20;52.20;;;;;;5014464;28;20062;-95
2022/07/05 08:28:40;;;;;;;;;;;28.30;52.30;;;;;;5014778;28;19959;-94
2022/07/05 08:31:05;;;;;;;;;;;28.40;51.20;;;;;;5014378;28;19940;-95
2022/07/05 08:33:31;;;;;;;;;;;28.40;51.10;;;;;;5014458;28;19944;-95
2022/07/05 08:35:56;;;;;;;;;;;28.50;51.20;;;;;;5014494;28;19941;-95
2022/07/05 08:38:22;;;;;;;;;;;28.70;51.60;;;;;;5014302;28;19948;-94
2022/07/05 08:40:50;;;;;;;;;;;28.80;49.80;;;;;;5014480;28;19943;-94
2022/07/05 08:43:16;;;;;;;;;;;28.80;49.80;;;;;;5014507;28;20451;-94
2022/07/05 08:45:45;;;;;;;;;;;28.80;50.10;;;;;;5014168;28;19980;-94
2022/07/05 08:48:12;;;;;;;;;;;29.00;50.60;;;;;;5014284;28;20341;-94
2022/07/05 08:50:39;;;;;;;;;;;29.20;50.30;;;;;;5009935;28;20352;-94
2022/07/05 08:53:05;;;;;;;;;;;29.30;50.90;;;;;;5014151;28;20311;-95
2022/07/05 08:55:31;;;;;;;;;;;29.40;50.20;;;;;;5014118;28;19961;-95
2022/07/05 08:57:57;;;;;;;;;;;29.40;48.30;;;;;;5014211;28;19942;-95
2022/07/05 09:00:23;;;;;;;;;;;29.40;50.50;;;;;;5014423;28;19942;-95
2022/07/05 09:02:49;;;;;;;;;;;29.50;49.60;;;;;;5013489;28;20309;-95
2022/07/05 09:05:18;;;;;;;;;;;29.50;51.80;;;;;;5013695;28;20395;-94
2022/07/05 09:07:48;;;;;;;;;;;29.50;47.50;;;;;;5013199;28;19964;-94
2022/07/05 09:10:14;;;;;;;;;;;29.50;48.90;;;;;;5013178;28;19937;-94
2022/07/05 09:12:40;;;;;;;;;;;29.50;48.60;;;;;;4995622;28;20473;-94
2022/07/05 09:15:05;;;;;;;;;;;29.50;48.20;;;;;;5014122;28;19980;-94
2022/07/05 09:17:31;;;;;;;;;;;29.40;48.10;;;;;;5013860;28;20284;-95
2022/07/05 09:20:07;;;;;;;;;;;29.40;47.90;;;;;;5013421;28;19942;-95
2022/07/05 09:23:02;;;;;;;;;;;29.50;50.20;;;;;;5013955;28;19937;-94
2022/07/05 09:25:29;;;;;;;;;;;29.50;49.50;;;;;;5004981;28;20005;-95
2022/07/05 09:27:55;;;;;;;;;;;29.50;49.00;;;;;;5013232;28;19957;-94
2022/07/05 09:30:32;;;;;;;;;;;29.50;46.50;;;;;;5013917;28;19945;-94
2022/07/05 09:33:03;;;;;;;;;;;29.60;47.50;;;;;;5014106;28;20009;-94
2022/07/05 09:35:29;;;;;;;;;;;29.60;48.80;;;;;;5013885;28;20054;-94
2022/07/05 09:37:55;;;;;;;;;;;29.60;49.30;;;;;;5013888;28;19943;-94
2022/07/05 09:40:21;;;;;;;;;;;29.60;49.50;;;;;;5013719;28;19951;-96
2022/07/05 09:42:46;;;;;;;;;;;29.70;50.50;;;;;;5014159;28;20426;-95
2022/07/05 09:45:12;;;;;;;;;;;29.80;51.10;;;;;;5013930;28;19977;-95
2022/07/05 09:47:37;;;;;;;;;;;29.80;48.80;;;;;;5013493;28;19971;-96
2022/07/05 09:50:04;;;;;;;;;;;29.90;50.80;;;;;;5013570;28;19939;-95
2022/07/05 09:52:34;;;;;;;;;;;30.00;49.20;;;;;;4996182;28;19956;-96
2022/07/05 09:55:20;;;;;;;;;;;30.10;49.10;;;;;;5013590;28;19958;-96
2022/07/05 09:57:50;;;;;;;;;;;30.20;49.00;;;;;;5013200;28;20046;-95
2022/07/05 10:00:17;;;;;;;;;;;30.30;46.00;;;;;;5013902;28;19946;-96
2022/07/05 10:02:50;;;;;;;;;;;30.20;45.40;;;;;;5014114;28;19941;-95
2022/07/05 10:05:16;;;;;;;;;;;30.20;46.60;;;;;;5017809;28;19943;-96
2022/07/05 10:07:45;;;;;;;;;;;30.20;46.70;;;;;;5017412;28;19970;-95
2022/07/05 10:10:12;;;;;;;;;;;30.20;48.30;;;;;;5017036;28;19941;-96
2022/07/05 10:12:39;;;;;;;;;;;30.30;47.60;;;;;;5017397;28;20037;-95
2022/07/05 10:15:05;;;;;;;;;;;30.40;46.60;;;;;;5017228;28;20027;-95
2022/07/05 10:17:35;;;;;;;;;;;30.40;46.20;;;;;;5016654;28;19979;-95
2022/07/05 10:20:01;;;;;;;;;;;30.50;46.40;;;;;;5017169;28;19945;-94
2022/07/05 10:22:27;;;;;;;;;;;30.60;44.20;;;;;;5016978;28;19938;-95
2022/07/05 10:24:53;;;;;;;;;;;30.50;44.10;;;;;;5017342;28;19945;-95
2022/07/05 10:27:19;;;;;;;;;;;30.40;44.80;;;;;;5016654;28;19962;-95
2022/07/05 10:29:45;;;;;;;;;;;30.50;45.80;;;;;;5017034;28;20305;-95
2022/07/05 10:32:13;;;;;;;;;;;30.60;44.90;;;;;;5017100;28;19993;-95
2022/07/05 10:34:39;;;;;;;;;;;30.50;44.70;;;;;;5017123;28;19942;-96
2022/07/05 10:37:05;;;;;;;;;;;30.50;45.80;;;;;;4999220;28;20317;-95
2022/07/05 10:39:30;;;;;;;;;;;30.60;45.90;;;;;;5016854;28;19984;-94
2022/07/05 10:41:57;;;;;;;;;;;30.80;44.60;;;;;;5017059;28;19946;-96
2022/07/05 10:44:40;;;;;;;;;;;30.90;44.10;;;;;;5016979;28;19950;-96
2022/07/05 10:47:12;;;;;;;;;;;31.00;44.80;;;;;;5016400;28;19973;-95
2022/07/05 10:49:39;;;;;;;;;;;31.00;42.40;;;;;;5017135;28;20292;-95
2022/07/05 10:52:05;;;;;;;;;;;31.00;41.90;;;;;;5016575;28;19946;-96
2022/07/05 10:54:31;;;;;;;;;;;31.10;43.70;;;;;;5016593;28;19963;-95
2022/07/05 10:57:15;;;;;;;;;;;31.20;40.90;;;;;;5016278;28;20228;-95
2022/07/05 10:59:59;;;;;;;;;;;31.10;41.60;;;;;;5016421;28;20403;-95
2022/07/05 11:02:25;;;;;;;;;;;31.10;43.40;;;;;;5016335;28;19950;-95
2022/07/05 11:04:55;;;;;;;;;;;31.20;43.70;;;;;;5016644;28;19948;-95
2022/07/05 11:07:40;;;;;;;;;;;31.30;44.20;;;;;;5016779;28;19959;-95
2022/07/05 11:10:06;;;;;;;;;;;31.60;43.90;;;;;;5016258;28;19941;-96
2022/07/05 11:12:36;;;;;;;;;;;31.70;42.60;;;;;;5016461;28;20398;-95
2022/07/05 11:15:06;;;;;;;;;;;31.70;41.10;;;;;;5016039;28;19937;-95
2022/07/05 11:17:34;;;;;;;;;;;31.70;39.90;;;;;;4998477;28;20314;-95
2022/07/05 11:20:00;;;;;;;;;;;31.90;41.30;;;;;;5015950;28;20417;-95
2022/07/05 11:22:25;;;;;;;;;;;32.00;40.20;;;;;;5016512;28;19942;-95
2022/07/05 11:24:51;;;;;;;;;;;32.10;39.60;;;;;;5015766;28;19947;-95
2022/07/05 11:27:17;;;;;;;;;;;32.30;38.70;;;;;;5015910;28;19973;-95
2022/07/05 11:29:47;;;;;;;;;;;32.40;39.80;;;;;;5015634;28;20391;-95
2022/07/05 11:32:15;;;;;;;;;;;32.60;38.60;;;;;;5015587;28;19946;-95
2022/07/05 11:34:42;;;;;;;;;;;32.80;37.40;;;;;;5015535;28;19941;-95
2022/07/05 11:37:13;;;;;;;;;;;32.90;39.20;;;;;;5015832;28;19949;-96
2022/07/05 11:39:39;;;;;;;;;;;33.00;38.00;;;;;;5015665;28;20001;-95
2022/07/05 11:42:04;;;;;;;;;;;33.20;37.70;;;;;;5015674;28;19937;-96
2022/07/05 11:44:33;;;;;;;;;;;33.40;37.10;;;;;;5015798;28;20031;-95
2022/07/05 11:46:59;;;;;;;;;;;33.20;36.80;;;;;;5015223;28;20039;-96
2022/07/05 11:49:25;;;;;;;;;;;33.10;38.50;;;;;;5015492;28;20420;-95
2022/07/05 11:51:54;;;;;;;;;;;33.10;37.50;;;;;;5015345;28;20393;-95
2022/07/05 11:54:22;;;;;;;;;;;32.90;37.90;;;;;;5015043;28;19939;-95
2022/07/05 11:56:49;;;;;;;;;;;33.10;39.00;;;;;;4997498;28;19945;-95
2022/07/05 11:59:21;;;;;;;;;;;33.30;39.10;;;;;;5014567;28;19945;-95
2022/07/05 12:01:47;;;;;;;;;;;33.30;40.30;;;;;;4997871;28;19972;-95
2022/07/05 12:04:22;;;;;;;;;;;33.30;37.60;;;;;;5015293;28;20375;-95
2022/07/05 12:06:48;;;;;;;;;;;33.50;38.10;;;;;;5015128;28;20335;-96
2022/07/05 12:09:16;;;;;;;;;;;33.80;38.70;;;;;;5015301;28;20024;-94
2022/07/05 12:14:33;;;;;;;;;;;34.50;36.10;;;;;;5015317;28;19952;-95
2022/07/05 12:17:14;;;;;;;;;;;35.00;37.00;;;;;;5015038;28;19942;-95
2022/07/05 12:19:40;;;;;;;;;;;35.00;34.90;;;;;;4997286;28;19999;-95
2022/07/05 12:22:05;;;;;;;;;;;35.40;35.80;;;;;;5014185;28;19981;-95
2022/07/05 12:24:31;;;;;;;;;;;35.40;35.30;;;;;;5015439;28;19949;-96
2022/07/05 12:26:57;;;;;;;;;;;35.80;35.40;;;;;;5014082;28;19973;-94
2022/07/05 12:29:22;;;;;;;;;;;36.00;33.80;;;;;;5014805;28;19943;-94
2022/07/05 12:32:02;;;;;;;;;;;36.40;33.50;;;;;;4996765;28;19950;-95
2022/07/05 12:34:27;;;;;;;;;;;36.40;32.10;;;;;;5014536;28;20027;-95
2022/07/05 12:36:53;;;;;;;;;;;36.50;33.70;;;;;;5014179;28;19971;-95
2022/07/05 12:39:19;;;;;;;;;;;36.40;34.20;;;;;;5014675;28;19941;-95
2022/07/05 12:41:44;;;;;;;;;;;36.70;32.90;;;;;;5014691;28;19941;-95
2022/07/05 12:44:10;;;;;;;;;;;36.70;33.40;;;;;;5014914;28;19937;-95
2022/07/05 12:46:39;;;;;;;;;;;36.30;33.50;;;;;;5014194;28;20458;-95
2022/07/05 12:49:05;;;;;;;;;;;36.20;34.40;;;;;;5014308;28;19938;-94
2022/07/05 12:51:34;;;;;;;;;;;36.20;34.10;;;;;;5013721;28;19995;-95
2022/07/05 12:59:35;;;;;;;;;;;35.80;32.90;;;;;;5014524;28;19944;-95
2022/07/05 13:02:01;;;;;;;;;;;35.90;33.70;;;;;;5013736;28;20026;-94
2022/07/05 13:04:26;;;;;;;;;;;35.90;34.30;;;;;;4995912;28;20406;-95
2022/07/05 13:06:54;;;;;;;;;;;36.70;32.60;;;;;;5014306;28;19968;-95
2022/07/05 13:09:32;;;;;;;;;;;37.40;30.90;;;;;;5014161;28;20333;-95
2022/07/05 13:12:13;;;;;;;;;;;38.10;31.80;;;;;;5013879;28;20020;-95
2022/07/05 13:14:40;;;;;;;;;;;39.10;29.50;;;;;;4995634;28;19938;-95
2022/07/05 13:17:06;;;;;;;;;;;39.20;28.20;;;;;;5014015;28;19966;-95
2022/07/05 13:19:32;;;;;;;;;;;39.10;28.30;;;;;;5013912;28;20336;-95
2022/07/05 13:21:57;;;;;;;;;;;39.00;29.60;;;;;;5013649;28;19949;-95
2022/07/05 13:24:23;;;;;;;;;;;38.90;28.40;;;;;;5013997;28;19952;-96
2022/07/05 13:26:49;;;;;;;;;;;39.30;28.50;;;;;;5014000;28;19942;-96
2022/07/05 13:29:14;;;;;;;;;;;38.40;29.20;;;;;;5014023;28;20452;-96
2022/07/05 13:31:41;;;;;;;;;;;37.80;29.90;;;;;;5014152;28;19944;-96
2022/07/05 13:34:07;;;;;;;;;;;38.40;30.10;;;;;;5014123;28;19949;-95
2022/07/05 13:36:32;;;;;;;;;;;38.70;30.90;;;;;;4996277;28;19949;-94
2022/07/05 13:38:58;;;;;;;;;;;38.30;29.10;;;;;;5016718;28;19939;-95
2022/07/05 13:41:23;;;;;;;;;;;37.90;30.90;;;;;;5012795;28;19965;-95
2022/07/05 13:43:49;;;;;;;;;;;38.80;30.90;;;;;;5017823;28;19960;-95
2022/07/05 13:46:15;;;;;;;;;;;39.60;28.30;;;;;;5082778;22;20084;-95
2022/07/05 13:48:40;;;;;;;;;;;40.40;27.70;;;;;;5097776;28;19939;-95
2022/07/05 13:51:06;;;;;;;;;;;40.20;27.50;;;;;;5097362;28;19944;-94
2022/07/05 13:53:32;;;;;;;;;;;40.10;28.20;;;;;;5097196;28;19986;-95
2022/07/05 13:55:57;;;;;;;;;;;39.80;27.30;;;;;;5096481;28;19943;-96
2022/07/05 13:58:23;;;;;;;;;;;39.20;29.80;;;;;;5097127;28;19938;-95
2022/07/05 14:00:48;;;;;;;;;;;38.80;28.20;;;;;;5097394;28;19941;-95
2022/07/05 14:03:15;;;;;;;;;;;39.20;29.40;;;;;;5097367;28;19980;-95
2022/07/05 14:05:43;;;;;;;;;;;39.50;28.70;;;;;;5097301;28;19971;-95
2022/07/05 14:08:10;;;;;;;;;;;40.00;27.60;;;;;;5096836;28;19958;-95
2022/07/05 14:10:36;;;;;;;;;;;40.50;27.40;;;;;;5079175;28;19939;-95
2022/07/05 14:13:01;;;;;;;;;;;41.50;24.80;;;;;;5097334;28;20366;-95
2022/07/05 14:15:27;;;;;;;;;;;41.70;26.20;;;;;;5097238;28;20085;-96
2022/07/05 14:17:53;;;;;;;;;;;41.60;25.20;;;;;;5097145;28;20027;-95
2022/07/05 14:20:18;;;;;;;;;;;39.60;27.30;;;;;;5097554;28;19942;-95
2022/07/05 14:22:44;;;;;;;;;;;38.50;29.10;;;;;;5097053;28;19937;-95
2022/07/05 14:25:09;;;;;;;;;;;38.30;30.30;;;;;;5095238;28;20288;-95
2022/07/05 14:27:35;;;;;;;;;;;38.90;29.70;;;;;;5076626;28;20417;-95
2022/07/05 14:30:02;;;;;;;;;;;39.10;28.60;;;;;;5076436;28;19990;-95
2022/07/05 14:32:27;;;;;;;;;;;39.30;28.50;;;;;;5076840;28;19959;-95
2022/07/05 14:34:53;;;;;;;;;;;39.20;28.80;;;;;;5076442;28;19937;-94
2022/07/05 14:37:20;;;;;;;;;;;39.50;29.00;;;;;;5076509;28;19941;-96
2022/07/05 14:39:46;;;;;;;;;;;39.70;28.90;;;;;;5076298;28;19940;-96
2022/07/05 14:42:11;;;;;;;;;;;39.20;27.70;;;;;;5070824;28;19966;-95
2022/07/05 14:44:37;;;;;;;;;;;38.50;29.00;;;;;;5075887;28;19938;-94
2022/07/05 14:47:03;;;;;;;;;;;38.10;29.60;;;;;;5075908;28;20049;-95
2022/07/05 14:49:28;;;;;;;;;;;38.40;29.10;;;;;;5075149;28;20013;-95
2022/07/05 14:51:54;;;;;;;;;;;38.60;29.70;;;;;;5076165;28;19950;-95
2022/07/05 14:54:20;;;;;;;;;;;38.90;29.70;;;;;;5058279;28;19952;-94
2022/07/05 14:56:45;;;;;;;;;;;39.70;27.70;;;;;;5076365;28;20369;-95
2022/07/05 14:59:11;;;;;;;;;;;39.60;27.60;;;;;;5076190;28;19935;-95
2022/07/05 15:01:36;;;;;;;;;;;38.90;29.00;;;;;;5076526;28;19945;-95
2022/07/05 15:04:02;;;;;;;;;;;38.50;29.90;;;;;;5076038;28;20022;-95
2022/07/05 15:06:28;;;;;;;;;;;38.30;29.40;;;;;;5076043;28;20042;-94
2022/07/05 15:08:53;;;;;;;;;;;38.00;30.30;;;;;;5075964;28;20031;-95
2022/07/05 15:11:19;;;;;;;;;;;38.30;30.70;;;;;;5076195;28;19998;-95
2022/07/05 15:13:45;;;;;;;;;;;38.80;30.40;;;;;;5075800;28;19947;-95
2022/07/05 15:16:11;;;;;;;;;;;39.20;30.50;;;;;;5068449;28;20401;-95
2022/07/05 15:18:37;;;;;;;;;;;39.50;28.50;;;;;;5055735;28;19991;-95
2022/07/05 15:21:04;;;;;;;;;;;38.70;29.00;;;;;;5055552;28;20421;-95
2022/07/05 15:23:29;;;;;;;;;;;38.10;30.20;;;;;;5065666;28;20407;-95
2022/07/05 15:25:55;;;;;;;;;;;38.70;29.80;;;;;;5075306;28;19960;-95
2022/07/05 15:28:21;;;;;;;;;;;39.10;29.10;;;;;;5074969;28;19942;-95
2022/07/05 15:30:47;;;;;;;;;;;39.40;28.60;;;;;;5057514;28;19944;-95
2022/07/05 15:33:12;;;;;;;;;;;39.70;28.10;;;;;;5075412;28;19971;-95
2022/07/05 15:35:38;;;;;;;;;;;40.30;28.40;;;;;;5075647;28;19959;-95
2022/07/05 15:38:03;;;;;;;;;;;40.40;26.90;;;;;;5075595;28;20304;-95
2022/07/05 15:40:29;;;;;;;;;;;40.00;28.10;;;;;;5075283;28;20306;-95
2022/07/05 15:42:55;;;;;;;;;;;39.50;28.40;;;;;;5070099;28;20337;-96
2022/07/05 15:45:20;;;;;;;;;;;38.80;29.40;;;;;;5075191;28;20452;-96
2022/07/05 15:47:46;;;;;;;;;;;38.70;29.70;;;;;;5075315;28;19954;-95
2022/07/05 15:50:12;;;;;;;;;;;38.20;29.40;;;;;;5075022;28;20053;-95
2022/07/05 15:52:38;;;;;;;;;;;37.10;32.00;;;;;;5074991;28;20362;-94
2022/07/05 15:55:04;;;;;;;;;;;36.70;32.30;;;;;;5074873;28;19939;-95
2022/07/05 15:57:30;;;;;;;;;;;36.60;33.10;;;;;;5074851;28;19968;-95
2022/07/05 15:59:56;;;;;;;;;;;36.50;32.50;;;;;;5074638;28;19943;-95
2022/07/05 16:02:22;;;;;;;;;;;35.90;33.30;;;;;;5074143;28;19990;-95
2022/07/05 16:04:48;;;;;;;;;;;36.10;34.30;;;;;;5074854;28;19937;-95
2022/07/05 16:07:14;;;;;;;;;;;36.40;33.80;;;;;;5074746;28;20387;-95
2022/07/05 16:09:39;;;;;;;;;;;36.10;33.00;;;;;;5074589;28;19964;-94
2022/07/05 16:12:05;;;;;;;;;;;35.70;34.50;;;;;;5074759;28;20353;-95
2022/07/05 16:14:31;;;;;;;;;;;35.20;34.80;;;;;;5074580;28;19947;-95
2022/07/05 16:16:56;;;;;;;;;;;35.40;34.00;;;;;;5074424;28;19948;-95
2022/07/05 16:19:22;;;;;;;;;;;35.50;35.10;;;;;;5074466;28;19943;-95
2022/07/05 16:21:49;;;;;;;;;;;35.70;34.70;;;;;;5074535;28;19979;-95
2022/07/05 16:24:16;;;;;;;;;;;35.70;34.70;;;;;;5056558;28;20456;-96
2022/07/05 16:26:41;;;;;;;;;;;35.90;35.80;;;;;;5074308;28;19971;-95
2022/07/05 16:29:07;;;;;;;;;;;36.20;34.20;;;;;;5068685;28;20453;-95
2022/07/05 16:31:33;;;;;;;;;;;36.40;34.30;;;;;;5036545;28;20310;-95
2022/07/05 16:33:59;;;;;;;;;;;36.60;32.00;;;;;;5054175;28;19937;-95
2022/07/05 16:36:24;;;;;;;;;;;36.60;32.30;;;;;;5054052;28;19941;-94
2022/07/05 16:38:51;;;;;;;;;;;36.40;32.40;;;;;;5054194;28;19957;-95
2022/07/05 16:41:17;;;;;;;;;;;36.10;35.50;;;;;;5053396;28;19941;-95
2022/07/05 16:43:44;;;;;;;;;;;35.90;34.50;;;;;;5054056;28;20296;-94
2022/07/05 16:46:10;;;;;;;;;;;35.90;34.30;;;;;;5053568;28;19974;-95
2022/07/05 16:48:38;;;;;;;;;;;35.60;33.90;;;;;;5053946;28;19939;-95
2022/07/05 16:51:14;;;;;;;;;;;35.50;34.60;;;;;;5054138;28;20287;-95
2022/07/05 16:53:39;;;;;;;;;;;35.20;34.00;;;;;;5054024;28;19991;-96
2022/07/05 16:56:10;;;;;;;;;;;35.10;35.90;;;;;;5055622;28;19939;-96
2022/07/05 16:58:40;;;;;;;;;;;35.10;36.30;;;;;;5057067;28;19940;-96
2022/07/05 17:01:08;;;;;;;;;;;35.00;36.80;;;;;;5056217;28;19993;-96
2022/07/05 17:03:35;;;;;;;;;;;35.00;37.60;;;;;;5057455;28;19945;-96
2022/07/05 17:06:00;;;;;;;;;;;34.70;39.00;;;;;;5057487;28;20002;-96
2022/07/05 17:08:26;;;;;;;;;;;34.50;39.30;;;;;;5058198;28;19979;-96
2022/07/05 17:10:51;;;;;;;;;;;34.40;39.20;;;;;;5058426;28;19939;-96
2022/07/05 17:13:17;;;;;;;;;;;34.20;41.60;;;;;;5060745;28;20032;-96
2022/07/05 17:15:43;;;;;;;;;;;34.10;43.90;;;;;;5065919;28;20048;-96
2022/07/05 17:18:09;;;;;;;;;;;34.00;42.60;;;;;;5068208;28;19948;-96
2022/07/05 17:20:35;;;;;;;;;;;33.80;41.30;;;;;;5069702;28;19935;-96
2022/07/05 17:23:00;;;;;;;;;;;33.80;40.60;;;;;;5049559;28;19948;-96
2022/07/05 17:25:26;;;;;;;;;;;33.50;38.60;;;;;;5056711;28;19960;-96
2022/07/05 17:27:51;;;;;;;;;;;33.00;39.20;;;;;;5055362;28;19962;-96
2022/07/05 17:30:17;;;;;;;;;;;32.70;39.70;;;;;;5054820;28;19942;-96
2022/07/05 17:32:43;;;;;;;;;;;32.30;40.70;;;;;;5036716;28;19944;-96
2022/07/05 17:35:08;;;;;;;;;;;32.00;41.70;;;;;;5055217;28;20363;-96
2022/07/05 17:37:34;;;;;;;;;;;31.70;42.60;;;;;;5056093;28;19948;-96
2022/07/05 17:39:59;;;;;;;;;;;31.40;43.30;;;;;;5055529;28;20323;-96
2022/07/05 17:42:25;;;;;;;;;;;31.10;44.30;;;;;;5057893;28;19947;-96
2022/07/05 17:44:50;;;;;;;;;;;31.00;44.80;;;;;;5060552;28;19990;-96
2022/07/05 17:47:16;;;;;;;;;;;30.90;44.90;;;;;;5041362;28;20022;-96
2022/07/05 17:49:44;;;;;;;;;;;30.80;45.00;;;;;;5060110;28;19952;-96
2022/07/05 17:52:09;;;;;;;;;;;30.80;45.80;;;;;;5061220;28;19941;-96
2022/07/05 17:54:35;;;;;;;;;;;30.70;45.70;;;;;;5063418;28;19946;-96
2022/07/05 17:57:01;;;;;;;;;;;30.60;45.90;;;;;;5049450;28;19952;-96
2022/07/05 17:59:27;;;;;;;;;;;30.50;46.50;;;;;;5068181;28;19946;-96
2022/07/05 18:01:53;;;;;;;;;;;30.50;46.60;;;;;;5050098;28;19947;-96
2022/07/05 18:04:18;;;;;;;;;;;30.30;46.40;;;;;;5069268;28;19948;-96
2022/07/05 18:06:44;;;;;;;;;;;30.30;46.40;;;;;;5068644;28;19965;-96
2022/07/05 18:09:11;;;;;;;;;;;30.20;46.70;;;;;;5050363;28;19940;-96
2022/07/05 18:11:37;;;;;;;;;;;30.20;47.10;;;;;;5052032;28;19970;-96
2022/07/05 18:14:03;;;;;;;;;;;30.10;47.50;;;;;;5053554;28;19943;-96
2022/07/05 18:16:29;;;;;;;;;;;30.10;47.70;;;;;;5053197;28;19969;-96
2022/07/05 18:18:55;;;;;;;;;;;30.00;47.80;;;;;;5053537;28;20006;-96
2022/07/05 18:21:21;;;;;;;;;;;30.00;47.70;;;;;;5054757;28;19976;-96
2022/07/05 18:23:50;;;;;;;;;;;30.00;47.70;;;;;;5054200;28;19944;-97
2022/07/05 18:26:16;;;;;;;;;;;29.90;48.00;;;;;;5056746;28;20063;-96
2022/07/05 18:28:42;;;;;;;;;;;29.80;48.30;;;;;;5056555;28;19940;-96
2022/07/05 18:31:08;;;;;;;;;;;29.80;48.70;;;;;;5056860;28;19971;-96
2022/07/05 18:33:34;;;;;;;;;;;29.70;49.00;;;;;;5072014;28;19932;-96
2022/07/05 18:35:59;;;;;;;;;;;29.70;48.90;;;;;;5070491;28;19969;-96
2022/07/05 18:38:25;;;;;;;;;;;29.50;49.20;;;;;;5050719;28;19946;-96
2022/07/05 18:40:51;;;;;;;;;;;29.50;49.20;;;;;;5068577;28;19945;-96
2022/07/05 18:43:16;;;;;;;;;;;29.40;49.10;;;;;;5049906;28;19945;-96
2022/07/05 18:45:43;;;;;;;;;;;29.30;49.10;;;;;;5065097;28;19977;-96
2022/07/05 18:48:12;;;;;;;;;;;29.20;49.30;;;;;;5049476;28;19972;-96
2022/07/05 18:50:39;;;;;;;;;;;29.20;48.70;;;;;;5068538;28;19952;-96
2022/07/05 18:53:05;;;;;;;;;;;29.20;48.90;;;;;;5069224;28;20008;-96
2022/07/05 18:55:30;;;;;;;;;;;29.10;48.90;;;;;;5069537;28;19964;-96
2022/07/05 18:57:56;;;;;;;;;;;29.00;49.30;;;;;;5070095;28;19943;-96
2022/07/05 19:00:22;;;;;;;;;;;29.00;49.20;;;;;;5070048;28;19941;-96
2022/07/05 19:02:48;;;;;;;;;;;28.90;49.40;;;;;;5071233;28;20013;-96